createdAt,value
2022-08-22T00:00:15.227Z,101267.00
2022-08-22T00:03:11.734Z,101057.80
2022-08-22T00:03:26.059Z,101268.40
2022-08-22T00:06:20.508Z,101278.60
2022-08-22T00:08:59.268Z,101285.40
2022-08-22T00:11:53.225Z,101289.00
2022-08-22T00:14:43.001Z,101292.60
2022-08-22T00:17:45.312Z,101292.00
2022-08-22T00:20:43.604Z,101294.40
2022-08-22T00:23:58.288Z,101294.60
2022-08-22T00:27:07.295Z,101297.00
2022-08-22T00:30:09.097Z,101294.20
2022-08-22T00:32:48.852Z,101293.60
2022-08-22T00:35:31.860Z,101290.60
2022-08-22T00:38:13.485Z,101298.40
2022-08-22T00:41:03.927Z,101301.40
2022-08-22T00:44:03.381Z,101302.60
2022-08-22T00:47:03.493Z,101300.40
2022-08-22T00:49:41.995Z,101310.20
2022-08-22T00:53:15.606Z,101311.60
2022-08-22T00:56:30.849Z,101313.00
2022-08-22T00:59:29.322Z,101315.00
2022-08-22T01:02:47.127Z,101319.60
2022-08-22T01:05:55.231Z,101322.80
2022-08-22T01:09:16.096Z,101328.80
2022-08-22T01:12:02.669Z,101335.80
2022-08-22T01:14:45.696Z,101338.00
2022-08-22T01:17:41.374Z,101340.20
2022-08-22T01:20:59.458Z,101342.60
2022-08-22T01:23:56.574Z,101350.00
2022-08-22T01:26:49.591Z,101360.00
2022-08-22T01:29:51.133Z,101365.60
2022-08-22T01:32:48.229Z,101362.00
2022-08-22T01:35:32.851Z,101366.60
2022-08-22T01:38:29.459Z,101368.00
2022-08-22T01:41:17.615Z,101370.00
2022-08-22T01:44:23.250Z,101370.40
2022-08-22T01:47:11.462Z,101372.00
2022-08-22T01:50:05.020Z,101377.60
2022-08-22T01:53:14.588Z,101381.40
2022-08-22T01:56:09.861Z,101384.40
2022-08-22T01:59:17.603Z,101387.80
2022-08-22T02:02:11.693Z,101389.80
2022-08-22T02:04:55.478Z,101393.40
2022-08-22T02:08:02.341Z,101390.60
2022-08-22T02:11:01.906Z,101395.60
2022-08-22T02:14:03.441Z,101393.20
2022-08-22T02:16:31.230Z,101390.80
2022-08-22T02:19:14.246Z,101389.40
2022-08-22T02:22:21.556Z,101391.80
2022-08-22T02:25:19.685Z,101400.20
2022-08-22T02:28:01.065Z,101407.60
2022-08-22T02:30:55.041Z,101409.80
2022-08-22T02:34:00.305Z,101409.60
2022-08-22T02:36:48.472Z,101415.00
2022-08-22T02:39:42.482Z,101419.80
2022-08-22T02:42:26.970Z,101427.20
2022-08-22T02:45:23.041Z,101422.40
2022-08-22T02:48:18.717Z,101420.00
2022-08-22T02:51:36.170Z,101412.80
2022-08-22T02:54:26.638Z,101409.20
2022-08-22T02:57:39.560Z,101410.60
2022-08-22T03:00:32.490Z,101418.00
2022-08-22T03:03:29.126Z,101424.60
2022-08-22T03:06:05.544Z,101430.40
2022-08-22T03:09:00.126Z,101433.40
2022-08-22T03:11:35.679Z,101437.00
2022-08-22T03:14:26.410Z,101441.60
2022-08-22T03:17:47.932Z,101443.80
2022-08-22T03:20:35.931Z,101441.00
2022-08-22T03:23:28.324Z,101442.80
2022-08-22T03:26:23.392Z,101448.20
2022-08-22T03:29:10.087Z,101450.80
2022-08-22T03:32:06.408Z,101455.80
2022-08-22T03:34:36.296Z,101444.80
2022-08-22T03:37:25.883Z,101456.20
2022-08-22T03:40:34.428Z,101454.80
2022-08-22T03:43:54.817Z,101457.60
2022-08-22T03:46:54.334Z,101463.60
2022-08-22T03:49:31.130Z,101466.20
2022-08-22T03:53:15.547Z,101470.80
2022-08-22T03:56:28.085Z,101478.60
2022-08-22T03:59:40.711Z,101480.20
2022-08-22T04:02:42.953Z,101477.60
2022-08-22T04:05:17.367Z,101485.60
2022-08-22T04:08:07.861Z,101491.60
2022-08-22T04:11:18.864Z,101496.60
2022-08-22T04:14:14.275Z,101502.00
2022-08-22T04:17:01.152Z,101500.80
2022-08-22T04:20:09.497Z,101500.20
2022-08-22T04:23:18.681Z,101497.80
2022-08-22T04:26:12.078Z,101500.60
2022-08-22T04:28:58.962Z,101506.60
2022-08-22T04:31:41.517Z,101507.20
2022-08-22T04:34:37.697Z,101506.60
2022-08-22T04:37:41.642Z,101513.40
2022-08-22T04:40:36.957Z,101515.80
2022-08-22T04:43:27.077Z,101521.80
2022-08-22T04:46:08.169Z,101527.20
2022-08-22T04:48:48.007Z,101535.00
2022-08-22T04:51:36.213Z,101536.80
2022-08-22T04:54:15.697Z,101531.40
2022-08-22T04:57:20.798Z,101533.40
2022-08-22T04:59:51.088Z,101536.80
2022-08-22T05:02:27.620Z,101546.20
2022-08-22T05:05:13.434Z,101544.80
2022-08-22T05:08:01.395Z,101549.80
2022-08-22T05:10:41.073Z,101546.20
2022-08-22T05:13:32.773Z,101548.20
2022-08-22T05:16:11.533Z,101548.20
2022-08-22T05:18:51.441Z,101548.80
2022-08-22T05:21:31.245Z,101555.80
2022-08-22T05:24:11.679Z,101556.40
2022-08-22T05:26:48.331Z,101561.00
2022-08-22T05:29:27.509Z,101570.00
2022-08-22T05:32:07.856Z,101569.40
2022-08-22T05:34:41.005Z,101571.80
2022-08-22T05:37:24.213Z,101569.80
2022-08-22T05:39:59.331Z,101577.00
2022-08-22T05:42:32.949Z,101584.60
2022-08-22T05:45:05.418Z,101585.40
2022-08-22T05:47:52.934Z,101588.40
2022-08-22T05:50:58.547Z,101597.60
2022-08-22T05:53:47.937Z,101593.60
2022-08-22T05:56:37.634Z,101598.00
2022-08-22T05:59:29.148Z,101598.00
2022-08-22T06:02:22.273Z,101598.00
2022-08-22T06:04:59.543Z,101601.00
2022-08-22T06:07:45.462Z,101601.80
2022-08-22T06:10:48.141Z,101606.80
2022-08-22T06:13:32.590Z,101612.40
2022-08-22T06:16:40.894Z,101613.40
2022-08-22T06:19:20.264Z,101608.20
2022-08-22T06:21:52.017Z,101617.60
2022-08-22T06:24:27.478Z,101615.40
2022-08-22T06:27:09.123Z,101617.40
2022-08-22T06:29:43.377Z,101627.20
2022-08-22T06:32:44.466Z,101626.00
2022-08-22T06:35:24.666Z,101628.80
2022-08-22T06:37:59.903Z,101628.20
2022-08-22T06:40:29.546Z,101628.00
2022-08-22T06:42:58.964Z,101629.20
2022-08-22T06:45:32.191Z,101625.80
2022-08-22T06:48:06.180Z,101630.20
2022-08-22T06:50:45.330Z,101635.00
2022-08-22T06:53:40.331Z,101633.20
2022-08-22T06:56:29.682Z,101633.80
2022-08-22T06:59:03.146Z,101639.80
2022-08-22T07:01:45.367Z,101636.40
2022-08-22T07:04:14.073Z,101636.80
2022-08-22T07:06:50.371Z,101645.00
2022-08-22T07:09:55.413Z,101648.80
2022-08-22T07:12:35.342Z,101658.20
2022-08-22T07:15:42.235Z,101656.20
2022-08-22T07:18:20.785Z,101660.80
2022-08-22T07:20:57.084Z,101659.40
2022-08-22T07:23:34.678Z,101669.80
2022-08-22T07:26:33.684Z,101671.60
2022-08-22T07:29:25.849Z,101676.40
2022-08-22T07:32:03.192Z,101683.40
2022-08-22T07:34:53.746Z,101683.60
2022-08-22T07:38:02.215Z,101682.40
2022-08-22T07:40:43.561Z,101685.80
2022-08-22T07:43:30.884Z,101692.60
2022-08-22T07:46:38.744Z,101692.00
2022-08-22T07:49:21.813Z,101692.00
2022-08-22T07:52:01.108Z,101691.40
2022-08-22T07:54:47.155Z,101691.40
2022-08-22T07:57:30.309Z,101696.00
2022-08-22T08:00:01.453Z,101699.00
2022-08-22T08:02:30.081Z,101696.80
2022-08-22T08:05:00.563Z,101705.40
2022-08-22T08:07:30.385Z,101701.20
2022-08-22T08:10:13.124Z,101702.40
2022-08-22T08:13:01.755Z,101705.80
2022-08-22T08:15:36.148Z,101714.60
2022-08-22T08:18:12.383Z,101722.00
2022-08-22T08:20:40.348Z,101719.60
2022-08-22T08:23:12.024Z,101720.00
2022-08-22T08:25:57.280Z,101725.00
2022-08-22T08:28:34.822Z,101729.00
2022-08-22T08:31:13.714Z,101730.60
2022-08-22T08:33:46.437Z,101728.80
2022-08-22T08:36:36.954Z,101735.00
2022-08-22T08:39:28.549Z,101734.00
2022-08-22T08:43:15.209Z,101737.20
2022-08-22T08:46:38.767Z,101743.00
2022-08-22T08:49:33.634Z,101744.40
2022-08-22T08:52:24.784Z,101741.80
2022-08-22T08:55:19.803Z,101741.20
2022-08-22T08:58:27.341Z,101744.80
2022-08-22T09:01:31.153Z,101750.00
2022-08-22T09:04:23.568Z,101756.20
2022-08-22T09:07:01.665Z,101766.60
2022-08-22T09:10:05.087Z,101770.80
2022-08-22T09:13:11.593Z,101776.80
2022-08-22T09:16:25.818Z,101778.60
2022-08-22T09:19:16.826Z,101771.80
2022-08-22T09:22:27.837Z,101776.20
2022-08-22T09:25:16.729Z,101791.00
2022-08-22T09:28:18.308Z,101795.60
2022-08-22T09:31:51.418Z,101812.40
2022-08-22T09:34:44.064Z,101816.40
2022-08-22T09:37:33.852Z,101817.20
2022-08-22T09:40:29.266Z,101831.20
2022-08-22T09:43:14.198Z,101830.60
2022-08-22T09:46:20.394Z,101832.40
2022-08-22T09:49:20.041Z,101843.80
2022-08-22T09:52:15.582Z,101836.20
2022-08-22T09:55:39.397Z,101847.40
2022-08-22T09:58:27.842Z,101853.80
2022-08-22T10:01:36.558Z,101860.40
2022-08-22T10:04:07.123Z,101856.00
2022-08-22T10:07:22.667Z,101861.40
2022-08-22T10:10:26.196Z,101868.60
2022-08-22T10:13:16.666Z,101879.40
2022-08-22T10:15:55.034Z,101878.20
2022-08-22T10:19:00.527Z,101883.80
2022-08-22T10:22:15.192Z,101886.80
2022-08-22T10:25:21.329Z,101886.40
2022-08-22T10:28:31.310Z,101887.60
2022-08-22T10:31:27.259Z,101885.20
2022-08-22T10:34:13.309Z,101891.80
2022-08-22T10:37:13.003Z,101897.80
2022-08-22T10:40:11.096Z,101902.20
2022-08-22T10:43:02.715Z,101905.20
2022-08-22T10:45:37.452Z,101904.20
2022-08-22T10:48:05.146Z,101901.80
2022-08-22T10:50:49.859Z,101890.80
2022-08-22T10:53:55.988Z,101902.80
2022-08-22T10:56:32.267Z,101901.40
2022-08-22T10:59:38.170Z,101905.20
2022-08-22T11:02:18.992Z,101901.00
2022-08-22T11:05:25.947Z,101897.40
2022-08-22T11:08:19.177Z,101900.60
2022-08-22T11:10:54.488Z,101904.60
2022-08-22T11:14:03.300Z,101910.20
2022-08-22T11:16:57.287Z,101905.20
2022-08-22T11:20:01.625Z,101907.00
2022-08-22T11:22:42.084Z,101910.60
2022-08-22T11:26:05.151Z,101914.60
2022-08-22T11:28:46.114Z,101908.40
2022-08-22T11:31:40.080Z,101915.60
2022-08-22T11:34:47.007Z,101904.00
2022-08-22T11:37:23.932Z,101905.60
2022-08-22T11:40:34.407Z,101914.40
2022-08-22T11:43:40.386Z,101907.20
2022-08-22T11:46:30.430Z,101914.40
2022-08-22T11:49:39.673Z,101916.80
2022-08-22T11:52:53.534Z,101919.80
2022-08-22T11:55:58.486Z,101919.60
2022-08-22T11:59:14.126Z,101920.40
2022-08-22T12:02:13.651Z,101922.20
2022-08-22T12:04:53.135Z,101924.80
2022-08-22T12:07:43.049Z,101922.40
2022-08-22T12:10:17.321Z,101922.00
2022-08-22T12:13:12.714Z,101919.40
2022-08-22T12:16:22.397Z,101925.00
2022-08-22T12:19:24.266Z,101918.20
2022-08-22T12:23:01.351Z,101920.40
2022-08-22T12:26:16.677Z,101919.00
2022-08-22T12:29:39.923Z,101933.00
2022-08-22T12:32:43.819Z,101928.60
2022-08-22T12:35:31.913Z,101931.00
2022-08-22T12:38:46.109Z,101931.80
2022-08-22T12:41:36.074Z,101926.80
2022-08-22T12:44:40.129Z,101927.00
2022-08-22T12:47:56.578Z,101936.20
2022-08-22T12:50:32.906Z,101939.00
2022-08-22T12:53:27.438Z,101937.80
2022-08-22T12:56:17.338Z,101935.80
2022-08-22T12:59:07.006Z,101940.40
2022-08-22T13:01:44.806Z,101931.40
2022-08-22T13:04:32.745Z,101930.40
2022-08-22T13:07:08.535Z,101925.60
2022-08-22T13:09:48.467Z,101927.20
2022-08-22T13:12:31.044Z,101928.20
2022-08-22T13:15:23.569Z,101920.80
2022-08-22T13:17:53.013Z,101919.80
2022-08-22T13:20:37.952Z,101920.20
2022-08-22T13:23:27.850Z,101919.60
2022-08-22T13:26:14.330Z,101921.20
2022-08-22T13:29:25.842Z,101916.20
2022-08-22T13:32:01.887Z,101913.80
2022-08-22T13:34:55.294Z,101921.40
2022-08-22T13:37:37.020Z,101920.80
2022-08-22T13:40:29.947Z,101918.40
2022-08-22T13:43:12.920Z,101921.00
2022-08-22T13:45:54.650Z,101916.20
2022-08-22T13:48:42.985Z,101916.00
2022-08-22T13:51:37.263Z,101914.20
2022-08-22T13:54:36.449Z,101913.60
2022-08-22T13:57:43.498Z,101914.00
2022-08-22T14:00:56.517Z,101919.20
2022-08-22T14:03:38.786Z,101924.80
2022-08-22T14:06:32.517Z,101919.00
2022-08-22T14:09:31.494Z,101923.40
2022-08-22T14:12:17.236Z,101922.80
2022-08-22T14:14:54.478Z,101926.60
2022-08-22T14:17:30.475Z,101930.40
2022-08-22T14:20:12.963Z,101932.40
2022-08-22T14:23:04.630Z,101928.60
2022-08-22T14:25:40.539Z,101926.20
2022-08-22T14:28:31.821Z,101924.00
2022-08-22T14:31:13.558Z,101925.60
2022-08-22T14:34:10.729Z,101921.60
2022-08-22T14:36:59.053Z,101922.40
2022-08-22T14:39:42.818Z,101917.20
2022-08-22T14:42:27.051Z,101917.80
2022-08-22T14:45:15.098Z,101918.40
2022-08-22T14:48:14.131Z,101918.40
2022-08-22T14:50:56.934Z,101915.00
2022-08-22T14:53:40.309Z,101917.40
2022-08-22T14:56:11.403Z,101914.60
2022-08-22T14:59:02.379Z,101913.60
2022-08-22T15:01:51.514Z,101911.60
2022-08-22T15:04:39.827Z,101906.60
2022-08-22T15:07:10.584Z,101903.80
2022-08-22T15:09:56.226Z,101906.00
2022-08-22T15:12:35.180Z,101905.40
2022-08-22T15:15:12.893Z,101907.20
2022-08-22T15:17:50.821Z,101909.40
2022-08-22T15:20:38.169Z,101909.80
2022-08-22T15:23:22.396Z,101909.40
2022-08-22T15:26:03.841Z,101908.20
2022-08-22T15:28:52.605Z,101909.60
2022-08-22T15:31:22.833Z,101903.60
2022-08-22T15:33:52.243Z,101904.40
2022-08-22T15:36:26.094Z,101903.40
2022-08-22T15:39:31.105Z,101898.20
2022-08-22T15:42:00.772Z,101895.80
2022-08-22T15:44:38.018Z,101891.00
2022-08-22T15:47:41.655Z,101893.80
2022-08-22T15:50:47.779Z,101898.20
2022-08-22T15:53:33.656Z,101894.00
2022-08-22T15:56:07.113Z,101900.20
2022-08-22T15:58:40.381Z,101903.00
2022-08-22T16:01:25.722Z,101904.60
2022-08-22T16:04:06.726Z,101903.20
2022-08-22T16:06:53.218Z,101900.80
2022-08-22T16:09:49.012Z,101898.40
2022-08-22T16:12:50.760Z,101904.40
2022-08-22T16:15:54.342Z,101901.00
2022-08-22T16:18:33.332Z,101896.60
2022-08-22T16:21:05.120Z,101899.20
2022-08-22T16:23:51.356Z,101900.40
2022-08-22T16:26:41.871Z,101901.80
2022-08-22T16:29:17.833Z,101905.40
2022-08-22T16:31:48.867Z,101905.80
2022-08-22T16:34:16.713Z,101906.80
2022-08-22T16:37:03.272Z,101908.80
2022-08-22T16:40:06.281Z,101904.20
2022-08-22T16:42:41.929Z,101899.60
2022-08-22T16:45:20.771Z,101904.80
2022-08-22T16:47:58.267Z,101905.80
2022-08-22T16:50:40.913Z,101908.00
2022-08-22T16:53:45.840Z,101906.60
2022-08-22T16:56:33.297Z,101909.80
2022-08-22T16:59:26.990Z,101912.80
2022-08-22T17:02:26.652Z,101918.60
2022-08-22T17:05:10.548Z,101920.40
2022-08-22T17:08:00.705Z,101919.60
2022-08-22T17:11:19.246Z,101917.40
2022-08-22T17:14:17.824Z,101916.20
2022-08-22T17:16:58.657Z,101912.00
2022-08-22T17:19:35.240Z,101917.00
2022-08-22T17:22:38.867Z,101923.20
2022-08-22T17:25:21.980Z,101930.80
2022-08-22T17:28:22.482Z,101931.80
2022-08-22T17:31:21.364Z,101934.20
2022-08-22T17:34:09.168Z,101931.20
2022-08-22T17:37:03.550Z,101937.20
2022-08-22T17:40:00.414Z,101934.80
2022-08-22T17:43:03.699Z,101937.60
2022-08-22T17:45:59.565Z,101940.80
2022-08-22T17:48:46.036Z,101947.40
2022-08-22T17:51:43.650Z,101947.40
2022-08-22T17:54:22.297Z,101957.40
2022-08-22T17:57:07.955Z,101962.40
2022-08-22T17:59:59.666Z,101963.60
2022-08-22T18:03:07.467Z,101968.20
2022-08-22T18:05:53.463Z,101974.60
2022-08-22T18:12:07.741Z,101982.00
2022-08-22T18:15:02.220Z,101977.20
2022-08-22T18:17:44.391Z,101978.80
2022-08-22T18:20:25.173Z,101977.40
2022-08-22T18:23:21.702Z,101977.40
2022-08-22T18:26:27.199Z,101982.00
2022-08-22T18:29:19.137Z,101987.00
2022-08-22T18:32:31.858Z,101991.00
2022-08-22T18:35:16.150Z,101996.00
2022-08-22T18:38:19.808Z,101994.80
2022-08-22T18:41:24.182Z,101998.60
2022-08-22T18:43:55.169Z,102000.00
2022-08-22T18:46:38.391Z,102001.80
2022-08-22T18:49:24.597Z,102003.60
2022-08-22T18:52:18.310Z,102005.80
2022-08-22T18:54:58.223Z,102007.60
2022-08-22T18:58:11.028Z,102013.60
2022-08-22T19:00:45.579Z,102013.60
2022-08-22T19:03:43.382Z,102014.40
2022-08-22T19:07:00.817Z,102011.00
2022-08-22T19:09:43.732Z,102012.80
2022-08-22T19:12:31.426Z,102012.00
2022-08-22T19:15:08.394Z,102014.40
2022-08-22T19:18:15.297Z,102014.60
2022-08-22T19:21:01.489Z,102015.60
2022-08-22T19:23:40.527Z,102012.00
2022-08-22T19:26:41.610Z,102019.80
2022-08-22T19:29:17.762Z,102017.80
2022-08-22T19:31:54.645Z,102018.40
2022-08-22T19:34:40.961Z,102022.20
2022-08-22T19:37:30.811Z,102025.80
2022-08-22T19:40:11.276Z,102025.80
2022-08-22T19:42:44.209Z,102027.20
2022-08-22T19:45:28.791Z,102029.60
2022-08-22T19:48:13.234Z,102024.40
2022-08-22T19:50:45.267Z,102024.80
2022-08-22T19:53:40.557Z,102026.20
2022-08-22T19:56:28.350Z,102025.20
2022-08-22T19:59:24.127Z,102027.40
2022-08-22T20:02:01.996Z,102027.00
2022-08-22T20:05:29.795Z,102028.60
2022-08-22T20:08:06.419Z,102030.60
2022-08-22T20:11:16.924Z,102033.40
2022-08-22T20:13:45.793Z,102031.60
2022-08-22T20:16:23.949Z,102028.20
2022-08-22T20:19:07.713Z,102028.00
2022-08-22T20:21:42.354Z,102030.40
2022-08-22T20:24:46.782Z,102033.80
2022-08-22T20:27:23.870Z,102036.20
2022-08-22T20:30:03.935Z,102029.60
2022-08-22T20:32:47.527Z,102027.00
2022-08-22T20:35:26.797Z,102027.40
2022-08-22T20:38:06.971Z,102026.40
2022-08-22T20:40:56.486Z,102026.60
2022-08-22T20:43:37.634Z,102030.60
2022-08-22T20:46:24.107Z,102029.20
2022-08-22T20:48:56.644Z,102036.00
2022-08-22T20:51:28.551Z,102034.00
2022-08-22T20:54:10.052Z,102031.60
2022-08-22T20:56:52.826Z,102038.40
2022-08-22T20:59:40.232Z,102040.80
2022-08-22T21:02:14.706Z,102043.40
2022-08-22T21:05:00.439Z,102042.40
2022-08-22T21:07:36.433Z,102043.80
2022-08-22T21:10:45.358Z,102049.80
2022-08-22T21:13:25.516Z,102055.40
2022-08-22T21:16:00.347Z,102055.60
2022-08-22T21:18:36.154Z,102054.60
2022-08-22T21:21:30.926Z,102054.80
2022-08-22T21:24:08.121Z,102053.20
2022-08-22T21:27:01.996Z,102056.20
2022-08-22T21:29:34.016Z,102056.20
2022-08-22T21:32:14.669Z,102056.40
2022-08-22T21:34:48.658Z,102057.40
2022-08-22T21:37:44.221Z,102060.60
2022-08-22T21:40:33.094Z,102059.40
2022-08-22T21:43:08.393Z,102064.20
2022-08-22T21:45:38.855Z,102066.40
2022-08-22T21:48:56.742Z,102069.60
2022-08-22T21:51:40.763Z,102067.20
2022-08-22T21:54:40.333Z,102068.20
2022-08-22T21:57:10.753Z,102070.00
2022-08-22T21:59:52.189Z,102071.80
2022-08-22T22:02:37.466Z,102073.20
2022-08-22T22:05:16.340Z,102071.00
2022-08-22T22:07:47.230Z,102069.80
2022-08-22T22:10:20.134Z,102069.80
2022-08-22T22:12:51.871Z,102073.80
2022-08-22T22:15:26.078Z,102071.40
2022-08-22T22:17:55.665Z,102072.20
2022-08-22T22:20:26.239Z,102074.00
2022-08-22T22:22:55.263Z,102077.00
2022-08-22T22:25:38.792Z,102078.80
2022-08-22T22:28:25.141Z,102079.60
2022-08-22T22:30:53.468Z,102085.20
2022-08-22T22:33:26.885Z,102081.00
2022-08-22T22:35:58.992Z,102085.60
2022-08-22T22:38:26.717Z,102086.20
2022-08-22T22:40:54.492Z,102086.20
2022-08-22T22:43:22.592Z,102083.40
2022-08-22T22:45:50.786Z,102089.80
2022-08-22T22:48:24.574Z,102086.40
2022-08-22T22:50:54.193Z,102092.40
2022-08-22T22:53:40.302Z,102093.60
2022-08-22T22:56:16.990Z,102098.60
2022-08-22T22:58:45.703Z,102098.00
2022-08-22T23:01:23.884Z,102095.00
2022-08-22T23:03:58.539Z,102099.60
2022-08-22T23:06:31.834Z,102095.20
2022-08-22T23:08:59.926Z,102102.60
2022-08-22T23:11:30.488Z,102097.80
2022-08-22T23:13:58.462Z,102096.20
2022-08-22T23:16:28.855Z,102101.80
2022-08-22T23:18:56.825Z,102103.20
2022-08-22T23:21:29.077Z,102102.00
2022-08-22T23:23:59.748Z,102108.20
2022-08-22T23:26:29.505Z,102113.40
2022-08-22T23:28:58.587Z,102115.60
2022-08-22T23:31:31.733Z,102118.60
2022-08-22T23:34:14.062Z,102115.20
2022-08-22T23:36:46.257Z,102116.40
2022-08-22T23:39:16.374Z,102117.60
2022-08-22T23:41:46.864Z,102114.20
2022-08-22T23:44:19.856Z,102118.40
2022-08-22T23:46:48.714Z,102115.40
2022-08-22T23:49:20.131Z,102114.60
2022-08-22T23:51:49.526Z,102111.80
2022-08-22T23:54:18.704Z,102114.80
2022-08-22T23:56:54.609Z,102115.80
2022-08-22T23:59:30.537Z,102117.60
